createdAt,value
2018-07-16T00:00:07.029Z,0.00
2018-07-16T00:01:07.035Z,0.00
2018-07-16T00:02:07.022Z,0.00
2018-07-16T00:03:07.038Z,0.00
2018-07-16T00:04:07.020Z,0.00
2018-07-16T00:05:07.037Z,0.00
2018-07-16T00:06:07.014Z,0.00
2018-07-16T00:07:07.019Z,0.00
2018-07-16T00:08:07.009Z,0.00
2018-07-16T00:09:07.021Z,0.00
2018-07-16T00:10:07.007Z,0.00
2018-07-16T00:11:07.005Z,0.00
2018-07-16T00:12:07.000Z,0.00
2018-07-16T00:13:07.004Z,0.00
2018-07-16T00:14:07.002Z,0.00
2018-07-16T00:15:07.000Z,0.00
2018-07-16T00:16:06.995Z,0.00
2018-07-16T00:17:06.998Z,0.00
2018-07-16T00:18:06.994Z,0.00
2018-07-16T00:19:06.991Z,0.00
2018-07-16T00:20:06.989Z,0.00
2018-07-16T00:21:06.996Z,0.00
2018-07-16T00:22:07.015Z,0.00
2018-07-16T00:23:07.010Z,0.00
2018-07-16T00:24:06.988Z,0.00
2018-07-16T00:25:06.976Z,0.00
2018-07-16T00:26:06.974Z,0.00
2018-07-16T00:27:06.972Z,0.00
2018-07-16T00:28:06.972Z,0.00
2018-07-16T00:29:06.969Z,0.00
2018-07-16T00:30:06.972Z,0.00
2018-07-16T00:31:06.986Z,0.00
2018-07-16T00:32:06.961Z,0.00
2018-07-16T00:33:06.972Z,0.00
2018-07-16T00:34:06.966Z,0.00
2018-07-16T00:35:06.953Z,0.00
2018-07-16T00:36:06.968Z,0.00
2018-07-16T00:37:06.952Z,0.00
2018-07-16T00:38:06.950Z,0.00
2018-07-16T00:39:06.945Z,0.00
2018-07-16T00:40:06.943Z,0.00
2018-07-16T00:41:06.941Z,0.00
2018-07-16T00:42:06.943Z,0.00
2018-07-16T00:43:06.942Z,0.00
2018-07-16T00:44:06.938Z,0.00
2018-07-16T00:45:06.935Z,0.00
2018-07-16T00:46:06.935Z,0.00
2018-07-16T00:47:06.932Z,0.00
2018-07-16T00:48:06.925Z,0.00
2018-07-16T00:49:06.926Z,0.00
2018-07-16T00:50:06.928Z,0.00
2018-07-16T00:51:06.919Z,0.00
2018-07-16T00:52:06.915Z,0.00
2018-07-16T00:53:06.917Z,0.00
2018-07-16T00:54:06.918Z,0.00
2018-07-16T00:55:06.912Z,0.00
2018-07-16T00:56:06.923Z,0.00
2018-07-16T00:57:06.906Z,0.00
2018-07-16T00:58:06.908Z,0.00
2018-07-16T00:59:06.911Z,0.00
2018-07-16T01:00:06.919Z,0.00
2018-07-16T01:01:06.922Z,0.00
2018-07-16T01:02:06.894Z,0.00
2018-07-16T01:03:06.893Z,0.00
2018-07-16T01:04:06.897Z,0.00
2018-07-16T01:05:06.892Z,0.00
2018-07-16T01:06:06.886Z,0.00
2018-07-16T01:07:06.882Z,0.00
2018-07-16T01:08:06.883Z,0.00
2018-07-16T01:09:06.880Z,0.00
2018-07-16T01:10:06.877Z,0.00
2018-07-16T01:11:06.876Z,0.00
2018-07-16T01:12:06.872Z,0.00
2018-07-16T01:13:06.883Z,0.00
2018-07-16T01:14:06.869Z,0.00
2018-07-16T01:15:06.866Z,0.00
2018-07-16T01:16:07.723Z,0.00
2018-07-16T01:17:06.861Z,0.00
2018-07-16T01:18:06.858Z,0.00
2018-07-16T01:19:06.881Z,0.00
2018-07-16T01:20:06.873Z,0.00
2018-07-16T01:21:06.856Z,0.00
2018-07-16T01:22:06.851Z,0.00
2018-07-16T01:23:06.850Z,0.00
2018-07-16T01:24:06.851Z,0.00
2018-07-16T01:25:06.846Z,0.00
2018-07-16T01:26:06.845Z,0.00
2018-07-16T01:27:06.840Z,0.00
2018-07-16T01:28:06.839Z,0.00
2018-07-16T01:29:06.841Z,0.00
2018-07-16T01:30:06.828Z,0.00
2018-07-16T01:31:06.832Z,0.00
2018-07-16T01:32:06.862Z,0.00
2018-07-16T01:33:06.821Z,0.00
2018-07-16T01:34:06.852Z,0.00
2018-07-16T01:35:06.834Z,0.00
2018-07-16T01:36:06.819Z,0.00
2018-07-16T01:37:06.816Z,0.00
2018-07-16T01:38:06.814Z,0.00
2018-07-16T01:39:06.816Z,0.00
2018-07-16T01:40:06.816Z,0.00
2018-07-16T01:41:06.820Z,0.00
2018-07-16T01:42:06.804Z,0.00
2018-07-16T01:43:06.800Z,0.00
2018-07-16T01:44:06.800Z,0.00
2018-07-16T01:45:06.803Z,0.00
2018-07-16T01:46:06.797Z,0.00
2018-07-16T01:47:06.791Z,0.00
2018-07-16T01:48:06.788Z,0.00
2018-07-16T01:49:06.789Z,0.00
2018-07-16T01:50:06.786Z,0.00
2018-07-16T01:51:06.783Z,0.00
2018-07-16T01:52:07.744Z,0.00
2018-07-16T01:53:06.775Z,0.00
2018-07-16T01:54:06.780Z,0.00
2018-07-16T01:55:06.777Z,0.00
2018-07-16T01:56:06.771Z,0.00
2018-07-16T01:57:06.774Z,0.00
2018-07-16T01:58:06.771Z,0.00
2018-07-16T01:59:06.762Z,0.00
2018-07-16T02:00:06.757Z,0.00
2018-07-16T02:01:06.755Z,0.00
2018-07-16T02:02:06.755Z,0.00
2018-07-16T02:03:06.755Z,0.00
2018-07-16T02:04:06.749Z,0.00
2018-07-16T02:05:06.746Z,0.00
2018-07-16T02:06:06.746Z,0.00
2018-07-16T02:07:06.739Z,0.00
2018-07-16T02:08:06.745Z,0.00
2018-07-16T02:09:06.742Z,0.00
2018-07-16T02:10:06.744Z,0.00
2018-07-16T02:11:06.733Z,0.00
2018-07-16T02:12:06.735Z,0.00
2018-07-16T02:13:06.733Z,0.00
2018-07-16T02:14:06.725Z,0.00
2018-07-16T02:15:06.721Z,0.00
2018-07-16T02:16:06.725Z,0.00
2018-07-16T02:17:06.721Z,0.00
2018-07-16T02:18:06.715Z,0.00
2018-07-16T02:19:06.712Z,0.00
2018-07-16T02:20:06.709Z,0.00
2018-07-16T02:21:06.710Z,0.00
2018-07-16T02:22:06.707Z,0.00
2018-07-16T02:23:06.722Z,0.00
2018-07-16T02:24:06.729Z,0.00
2018-07-16T02:25:06.700Z,0.00
2018-07-16T02:26:06.719Z,0.00
2018-07-16T02:27:06.694Z,0.00
2018-07-16T02:28:06.690Z,0.00
2018-07-16T02:29:06.689Z,0.00
2018-07-16T02:30:06.683Z,0.00
2018-07-16T02:31:06.689Z,0.00
2018-07-16T02:32:06.705Z,0.00
2018-07-16T02:33:06.705Z,0.00
2018-07-16T02:34:06.679Z,0.00
2018-07-16T02:35:06.675Z,0.00
2018-07-16T02:36:06.669Z,0.00
2018-07-16T02:37:06.664Z,0.00
2018-07-16T02:38:06.685Z,0.00
2018-07-16T02:39:06.658Z,0.00
2018-07-16T02:40:06.661Z,0.00
2018-07-16T02:41:06.655Z,0.00
2018-07-16T02:42:06.652Z,0.00
2018-07-16T02:43:06.647Z,0.00
2018-07-16T02:44:06.648Z,0.00
2018-07-16T02:45:06.643Z,0.00
2018-07-16T02:46:06.718Z,0.00
2018-07-16T02:47:06.636Z,0.00
2018-07-16T02:48:06.637Z,4.00
2018-07-16T02:49:06.630Z,4.00
2018-07-16T02:50:06.627Z,0.00
2018-07-16T02:51:06.629Z,0.00
2018-07-16T02:52:06.623Z,4.00
2018-07-16T02:53:06.627Z,4.00
2018-07-16T02:54:06.619Z,0.00
2018-07-16T02:55:06.623Z,4.00
2018-07-16T02:56:06.616Z,8.00
2018-07-16T02:57:06.608Z,4.00
2018-07-16T02:58:06.610Z,8.00
2018-07-16T02:59:06.606Z,8.00
2018-07-16T03:00:06.611Z,12.00
2018-07-16T03:01:06.604Z,12.00
2018-07-16T03:02:06.596Z,12.00
2018-07-16T03:03:06.590Z,12.00
2018-07-16T03:04:06.600Z,16.00
2018-07-16T03:05:06.601Z,16.00
2018-07-16T03:06:06.591Z,20.00
2018-07-16T03:07:06.583Z,20.00
2018-07-16T03:08:06.581Z,24.00
2018-07-16T03:09:06.576Z,28.00
2018-07-16T03:10:06.572Z,28.00
2018-07-16T03:11:06.570Z,32.00
2018-07-16T03:12:06.569Z,36.00
2018-07-16T03:13:06.566Z,44.00
2018-07-16T03:14:06.564Z,44.00
2018-07-16T03:15:06.571Z,56.00
2018-07-16T03:16:06.562Z,60.00
2018-07-16T03:17:06.551Z,64.00
2018-07-16T03:18:06.644Z,72.00
2018-07-16T03:19:06.547Z,80.00
2018-07-16T03:20:06.552Z,88.00
2018-07-16T03:21:06.544Z,96.00
2018-07-16T03:22:06.540Z,108.00
2018-07-16T03:23:06.543Z,116.00
2018-07-16T03:24:06.534Z,128.00
2018-07-16T03:25:06.535Z,136.00
2018-07-16T03:26:06.526Z,148.00
2018-07-16T03:27:06.522Z,164.00
2018-07-16T03:28:06.521Z,176.00
2018-07-16T03:29:06.523Z,188.00
2018-07-16T03:30:06.520Z,204.00
2018-07-16T03:31:06.515Z,220.00
2018-07-16T03:32:06.514Z,236.00
2018-07-16T03:33:06.506Z,252.00
2018-07-16T03:34:06.504Z,272.00
2018-07-16T03:35:06.535Z,288.00
2018-07-16T03:36:06.508Z,304.00
2018-07-16T03:37:06.499Z,328.00
2018-07-16T03:38:06.502Z,348.00
2018-07-16T03:39:06.517Z,364.00
2018-07-16T03:40:06.496Z,384.00
2018-07-16T03:41:06.484Z,404.00
2018-07-16T03:42:06.498Z,432.00
2018-07-16T03:43:06.482Z,452.00
2018-07-16T03:44:06.475Z,476.00
2018-07-16T03:45:06.473Z,500.00
2018-07-16T03:46:06.471Z,520.00
2018-07-16T03:47:06.468Z,544.00
2018-07-16T03:48:06.578Z,564.00
2018-07-16T03:49:06.460Z,592.00
2018-07-16T03:50:06.457Z,616.00
2018-07-16T03:51:06.456Z,640.00
2018-07-16T03:52:06.452Z,660.00
2018-07-16T03:53:06.452Z,688.00
2018-07-16T03:54:06.442Z,708.00
2018-07-16T03:55:06.442Z,732.00
2018-07-16T03:56:06.437Z,760.00
2018-07-16T03:57:06.439Z,784.00
2018-07-16T03:58:06.435Z,808.00
2018-07-16T03:59:06.433Z,828.00
2018-07-16T04:00:06.438Z,852.00
2018-07-16T04:01:06.424Z,876.00
2018-07-16T04:02:06.422Z,900.00
2018-07-16T04:03:06.416Z,924.00
2018-07-16T04:04:06.433Z,948.00
2018-07-16T04:05:06.416Z,972.00
2018-07-16T04:06:06.408Z,992.00
2018-07-16T04:07:06.403Z,1016.00
2018-07-16T04:08:06.403Z,1040.00
2018-07-16T04:09:06.401Z,1060.00
2018-07-16T04:10:06.396Z,1084.00
2018-07-16T04:11:06.415Z,1108.00
2018-07-16T04:12:06.393Z,1128.00
2018-07-16T04:13:06.402Z,1148.00
2018-07-16T04:14:06.385Z,1168.00
2018-07-16T04:15:06.382Z,1192.00
2018-07-16T04:16:06.386Z,1208.00
2018-07-16T04:17:06.377Z,1232.00
2018-07-16T04:18:06.377Z,1252.00
2018-07-16T04:19:06.374Z,1276.00
2018-07-16T04:20:06.373Z,1292.00
2018-07-16T04:21:06.366Z,1312.00
2018-07-16T04:22:06.361Z,1332.00
2018-07-16T04:23:08.322Z,1356.00
2018-07-16T04:24:06.355Z,1372.00
2018-07-16T04:25:06.355Z,1392.00
2018-07-16T04:26:06.354Z,1412.00
2018-07-16T04:27:06.351Z,1428.00
2018-07-16T04:28:06.346Z,1444.00
2018-07-16T04:29:06.350Z,1468.00
2018-07-16T04:30:06.339Z,1484.00
2018-07-16T04:31:06.341Z,1504.00
2018-07-16T04:32:06.333Z,1524.00
2018-07-16T04:33:06.332Z,1544.00
2018-07-16T04:34:06.370Z,1564.00
2018-07-16T04:35:06.341Z,1584.00
2018-07-16T04:36:06.328Z,1600.00
2018-07-16T04:37:06.348Z,1624.00
2018-07-16T04:38:06.315Z,1644.00
2018-07-16T04:39:06.315Z,1664.00
2018-07-16T04:40:06.309Z,1684.00
2018-07-16T04:41:06.312Z,1704.00
2018-07-16T04:42:06.305Z,1720.00
2018-07-16T04:43:06.309Z,1736.00
2018-07-16T04:44:06.306Z,1760.00
2018-07-16T04:45:06.297Z,1780.00
2018-07-16T04:46:06.303Z,1804.00
2018-07-16T04:47:06.291Z,1820.00
2018-07-16T04:48:06.292Z,1840.00
2018-07-16T04:49:06.292Z,1856.00
2018-07-16T04:50:06.278Z,1876.00
2018-07-16T04:51:06.274Z,1892.00
2018-07-16T04:52:06.288Z,1912.00
2018-07-16T04:53:06.273Z,1932.00
2018-07-16T04:54:06.295Z,1960.00
2018-07-16T04:55:06.275Z,1988.00
2018-07-16T04:56:06.274Z,2032.00
2018-07-16T04:57:06.269Z,2084.00
2018-07-16T04:58:06.255Z,2128.00
2018-07-16T04:59:06.254Z,2164.00
2018-07-16T05:00:06.251Z,2192.00
2018-07-16T05:01:06.256Z,2200.00
2018-07-16T05:02:06.273Z,2208.00
2018-07-16T05:03:06.280Z,2248.00
2018-07-16T05:04:06.257Z,2336.00
2018-07-16T05:05:06.254Z,2376.00
2018-07-16T05:06:06.232Z,2324.00
2018-07-16T05:07:06.232Z,2264.00
2018-07-16T05:08:06.228Z,2244.00
2018-07-16T05:09:06.229Z,2244.00
2018-07-16T05:10:06.226Z,2256.00
2018-07-16T05:11:06.222Z,2280.00
2018-07-16T05:12:06.218Z,2312.00
2018-07-16T05:13:06.214Z,2364.00
2018-07-16T05:14:06.216Z,2424.00
2018-07-16T05:15:06.214Z,2496.00
2018-07-16T05:16:06.209Z,2592.00
2018-07-16T05:17:06.208Z,2712.00
2018-07-16T05:18:06.271Z,2860.00
2018-07-16T05:19:06.203Z,3044.00
2018-07-16T05:20:06.198Z,3272.00
2018-07-16T05:21:06.194Z,3576.00
2018-07-16T05:22:06.198Z,3996.00
2018-07-16T05:23:06.193Z,4528.00
2018-07-16T05:24:06.271Z,5176.00
2018-07-16T05:25:06.194Z,5952.00
2018-07-16T05:26:06.194Z,6664.00
2018-07-16T05:27:06.184Z,7160.00
2018-07-16T05:28:06.204Z,7512.00
2018-07-16T05:29:06.185Z,7816.00
2018-07-16T05:30:06.200Z,8060.00
2018-07-16T05:31:06.176Z,8224.00
2018-07-16T05:32:06.224Z,8328.00
2018-07-16T05:33:06.182Z,8476.00
2018-07-16T05:34:06.171Z,8676.00
2018-07-16T05:35:06.169Z,9420.00
2018-07-16T05:36:06.173Z,10364.00
2018-07-16T05:37:06.170Z,10656.00
2018-07-16T05:38:06.197Z,11052.00
2018-07-16T05:39:06.168Z,11380.00
2018-07-16T05:40:06.866Z,11516.00
2018-07-16T05:41:06.165Z,11656.00
2018-07-16T05:42:06.175Z,12064.00
2018-07-16T05:43:06.169Z,12440.00
2018-07-16T05:44:06.181Z,12724.00
2018-07-16T05:45:06.163Z,13240.00
2018-07-16T05:46:06.163Z,13336.00
2018-07-16T05:47:06.161Z,13416.00
2018-07-16T05:48:06.160Z,13856.00
2018-07-16T05:49:06.164Z,14120.00
2018-07-16T05:50:06.161Z,14256.00
2018-07-16T05:51:06.170Z,14472.00
2018-07-16T05:52:06.168Z,14848.00
2018-07-16T05:53:06.166Z,15168.00
2018-07-16T05:54:06.164Z,15456.00
2018-07-16T05:55:06.171Z,15872.00
2018-07-16T05:56:06.178Z,16448.00
2018-07-16T05:57:06.169Z,16448.00
2018-07-16T05:58:06.209Z,16160.00
2018-07-16T05:59:06.173Z,16160.00
2018-07-16T06:00:06.175Z,16512.00
2018-07-16T06:01:06.176Z,17024.00
2018-07-16T06:02:06.173Z,17376.00
2018-07-16T06:03:06.199Z,17440.00
2018-07-16T06:04:06.179Z,17568.00
2018-07-16T06:05:06.181Z,17696.00
2018-07-16T06:06:06.184Z,17792.00
2018-07-16T06:07:06.186Z,18528.00
2018-07-16T06:08:06.182Z,19040.00
2018-07-16T06:09:06.187Z,19488.00
2018-07-16T06:10:06.188Z,19744.00
2018-07-16T06:11:06.192Z,19936.00
2018-07-16T06:12:06.204Z,20064.00
2018-07-16T06:13:06.195Z,20320.00
2018-07-16T06:14:06.206Z,20032.00
2018-07-16T06:15:06.208Z,19520.00
2018-07-16T06:16:06.216Z,19616.00
2018-07-16T06:17:06.208Z,19776.00
2018-07-16T06:18:06.208Z,18016.00
2018-07-16T06:19:06.242Z,12668.00
2018-07-16T06:20:06.216Z,8988.00
2018-07-16T06:21:06.223Z,13344.00
2018-07-16T06:22:06.218Z,19584.00
2018-07-16T06:23:06.224Z,15904.00
2018-07-16T06:24:06.356Z,21856.00
2018-07-16T06:25:06.237Z,23392.00
2018-07-16T06:26:06.233Z,23872.00
2018-07-16T06:27:06.243Z,24416.00
2018-07-16T06:28:06.239Z,25632.00
2018-07-16T06:29:06.244Z,26400.00
2018-07-16T06:30:06.253Z,26400.00
2018-07-16T06:31:09.023Z,26912.00
2018-07-16T06:32:06.255Z,28256.00
2018-07-16T06:33:06.277Z,28448.00
2018-07-16T06:34:06.262Z,28352.00
2018-07-16T06:35:06.263Z,27840.00
2018-07-16T06:36:06.266Z,27520.00
2018-07-16T06:37:06.268Z,27520.00
2018-07-16T06:38:06.274Z,27456.00
2018-07-16T06:39:06.280Z,28608.00
2018-07-16T06:40:06.314Z,29248.00
2018-07-16T06:41:06.640Z,28960.00
2018-07-16T06:42:06.298Z,29088.00
2018-07-16T06:43:06.302Z,29632.00
2018-07-16T06:44:06.301Z,29952.00
2018-07-16T06:45:06.306Z,31200.00
2018-07-16T06:46:06.310Z,30816.00
2018-07-16T06:47:06.313Z,30752.00
2018-07-16T06:48:06.322Z,31296.00
2018-07-16T06:49:06.322Z,32160.00
2018-07-16T06:50:06.324Z,32480.00
2018-07-16T06:51:06.331Z,32896.00
2018-07-16T06:52:06.333Z,32064.00
2018-07-16T06:53:06.342Z,31424.00
2018-07-16T06:54:06.344Z,33664.00
2018-07-16T06:55:06.373Z,34592.00
2018-07-16T06:56:06.358Z,34368.00
2018-07-16T06:57:06.363Z,34080.00
2018-07-16T06:58:06.368Z,34976.00
2018-07-16T06:59:06.927Z,36352.00
2018-07-16T07:00:06.379Z,35328.00
2018-07-16T07:01:06.380Z,34816.00
2018-07-16T07:02:06.385Z,34432.00
2018-07-16T07:03:06.387Z,33856.00
2018-07-16T07:04:06.422Z,33056.00
2018-07-16T07:05:06.426Z,33024.00
2018-07-16T07:06:06.406Z,33056.00
2018-07-16T07:07:06.410Z,33280.00
2018-07-16T07:08:06.435Z,34592.00
2018-07-16T07:09:06.424Z,34784.00
2018-07-16T07:10:06.477Z,34912.00
2018-07-16T07:11:06.454Z,35168.00
2018-07-16T07:12:06.443Z,35104.00
2018-07-16T07:13:07.441Z,35072.00
2018-07-16T07:14:06.448Z,35008.00
2018-07-16T07:15:06.472Z,34016.00
2018-07-16T07:16:06.483Z,34912.00
2018-07-16T07:17:06.468Z,35936.00
2018-07-16T07:18:06.490Z,36544.00
2018-07-16T07:19:06.481Z,37056.00
2018-07-16T07:20:06.484Z,36992.00
2018-07-16T07:21:06.491Z,36128.00
2018-07-16T07:22:06.499Z,34656.00
2018-07-16T07:23:06.512Z,33728.00
2018-07-16T07:24:06.513Z,34592.00
2018-07-16T07:25:06.518Z,37088.00
2018-07-16T07:26:07.448Z,39296.00
2018-07-16T07:27:06.537Z,39680.00
2018-07-16T07:28:06.533Z,40160.00
2018-07-16T07:29:06.545Z,40384.00
2018-07-16T07:30:06.552Z,40608.00
2018-07-16T07:31:06.570Z,40992.00
2018-07-16T07:32:06.560Z,41344.00
2018-07-16T07:33:06.568Z,40896.00
2018-07-16T07:34:06.585Z,39552.00
2018-07-16T07:35:06.636Z,40224.00
2018-07-16T07:36:06.679Z,40864.00
2018-07-16T07:37:06.593Z,40544.00
2018-07-16T07:38:06.611Z,42656.00
2018-07-16T07:39:06.606Z,43392.00
2018-07-16T07:40:06.609Z,42976.00
2018-07-16T07:41:06.617Z,43072.00
2018-07-16T07:42:06.621Z,43264.00
2018-07-16T07:43:06.633Z,43104.00
2018-07-16T07:44:06.635Z,43232.00
2018-07-16T07:45:06.655Z,44224.00
2018-07-16T07:46:06.648Z,44288.00
2018-07-16T07:47:06.663Z,45440.00
2018-07-16T07:48:06.664Z,45504.00
2018-07-16T07:49:06.680Z,45600.00
2018-07-16T07:50:06.683Z,46976.00
2018-07-16T07:51:06.710Z,47328.00
2018-07-16T07:52:06.701Z,45376.00
2018-07-16T07:53:06.711Z,44384.00
2018-07-16T07:54:06.724Z,43552.00
2018-07-16T07:55:07.228Z,27264.00
2018-07-16T07:56:06.746Z,18912.00
2018-07-16T07:57:06.733Z,17856.00
2018-07-16T07:58:06.738Z,17504.00
2018-07-16T07:59:06.744Z,17376.00
2018-07-16T08:00:06.754Z,17312.00
2018-07-16T08:01:06.764Z,17472.00
2018-07-16T08:02:06.769Z,17760.00
2018-07-16T08:03:06.772Z,18464.00
2018-07-16T08:04:06.785Z,29856.00
2018-07-16T08:05:06.792Z,46304.00
2018-07-16T08:06:06.801Z,51360.00
2018-07-16T08:07:06.808Z,54016.00
2018-07-16T08:08:06.809Z,54144.00
2018-07-16T08:09:06.817Z,53248.00
2018-07-16T08:10:06.824Z,52640.00
2018-07-16T08:11:06.831Z,50592.00
2018-07-16T08:12:06.838Z,50528.00
2018-07-16T08:13:06.848Z,53184.00
2018-07-16T08:14:06.854Z,53376.00
2018-07-16T08:15:06.861Z,53376.00
2018-07-16T08:16:06.869Z,53632.00
2018-07-16T08:17:06.876Z,55168.00
2018-07-16T08:18:06.892Z,56000.00
2018-07-16T08:19:06.895Z,53920.00
2018-07-16T08:20:06.935Z,48768.00
2018-07-16T08:21:07.072Z,51872.00
2018-07-16T08:22:06.916Z,55296.00
2018-07-16T08:23:06.927Z,60704.00
2018-07-16T08:24:06.931Z,62304.00
2018-07-16T08:25:06.944Z,64512.00
2018-07-16T08:26:06.951Z,65920.00
2018-07-16T08:27:06.958Z,65248.00
2018-07-16T08:28:06.990Z,65536.00
2018-07-16T08:29:06.974Z,65280.00
2018-07-16T08:30:06.980Z,65408.00
2018-07-16T08:31:06.989Z,65088.00
2018-07-16T08:32:07.059Z,62240.00
2018-07-16T08:33:07.032Z,61472.00
2018-07-16T08:34:07.017Z,61920.00
2018-07-16T08:35:07.030Z,63648.00
2018-07-16T08:36:07.032Z,63232.00
2018-07-16T08:37:08.025Z,65056.00
2018-07-16T08:38:07.064Z,67744.00
2018-07-16T08:39:07.141Z,66592.00
2018-07-16T08:40:07.078Z,66080.00
2018-07-16T08:41:07.078Z,67904.00
2018-07-16T08:42:07.091Z,67776.00
2018-07-16T08:43:07.097Z,67808.00
2018-07-16T08:44:07.110Z,68160.00
2018-07-16T08:45:07.114Z,66976.00
2018-07-16T08:46:07.127Z,66528.00
2018-07-16T08:47:07.145Z,65824.00
2018-07-16T08:48:07.138Z,65344.00
2018-07-16T08:49:07.152Z,66080.00
2018-07-16T08:50:07.161Z,67424.00
2018-07-16T08:51:07.169Z,67392.00
2018-07-16T08:52:07.177Z,66432.00
2018-07-16T08:53:07.186Z,65376.00
2018-07-16T08:54:07.193Z,65888.00
2018-07-16T08:55:07.206Z,66944.00
2018-07-16T08:56:07.218Z,66816.00
2018-07-16T08:57:07.224Z,66176.00
2018-07-16T08:58:07.257Z,66720.00
2018-07-16T08:59:07.268Z,65376.00
2018-07-16T09:00:07.253Z,65504.00
2018-07-16T09:01:07.263Z,67456.00
2018-07-16T09:02:07.270Z,69056.00
2018-07-16T09:03:07.284Z,69024.00
2018-07-16T09:04:07.358Z,67904.00
2018-07-16T09:05:07.323Z,66432.00
2018-07-16T09:06:07.309Z,68480.00
2018-07-16T09:07:07.383Z,70464.00
2018-07-16T09:08:07.332Z,71104.00
2018-07-16T09:09:07.339Z,69920.00
2018-07-16T09:10:07.354Z,67360.00
2018-07-16T09:11:07.383Z,69216.00
2018-07-16T09:12:07.381Z,70272.00
2018-07-16T09:13:07.388Z,70112.00
2018-07-16T09:14:07.390Z,70240.00
2018-07-16T09:15:07.409Z,54400.00
2018-07-16T09:16:07.421Z,26432.00
2018-07-16T09:17:07.447Z,21152.00
2018-07-16T09:18:07.467Z,20992.00
2018-07-16T09:19:07.505Z,20800.00
2018-07-16T09:20:07.462Z,24288.00
2018-07-16T09:21:07.473Z,23648.00
2018-07-16T09:22:07.482Z,43616.00
2018-07-16T09:23:07.510Z,63520.00
2018-07-16T09:24:07.498Z,75456.00
2018-07-16T09:25:07.513Z,77248.00
2018-07-16T09:26:07.524Z,77440.00
2018-07-16T09:27:07.533Z,76768.00
2018-07-16T09:28:07.573Z,76832.00
2018-07-16T09:29:07.559Z,76992.00
2018-07-16T09:30:07.572Z,76896.00
2018-07-16T09:31:07.579Z,76576.00
2018-07-16T09:32:07.593Z,76800.00
2018-07-16T09:33:07.601Z,76448.00
2018-07-16T09:34:07.616Z,74336.00
2018-07-16T09:35:07.626Z,75168.00
2018-07-16T09:36:07.637Z,77696.00
2018-07-16T09:37:07.647Z,77504.00
2018-07-16T09:38:07.657Z,77184.00
2018-07-16T09:39:07.755Z,78112.00
2018-07-16T09:40:07.681Z,78976.00
2018-07-16T09:41:07.703Z,81568.00
2018-07-16T09:42:07.712Z,83936.00
2018-07-16T09:43:07.715Z,85088.00
2018-07-16T09:44:07.722Z,84192.00
2018-07-16T09:45:07.729Z,82720.00
2018-07-16T09:46:07.742Z,79200.00
2018-07-16T09:47:07.749Z,77792.00
2018-07-16T09:48:07.758Z,82368.00
2018-07-16T09:49:07.776Z,88448.00
2018-07-16T09:50:07.787Z,90144.00
2018-07-16T09:51:07.796Z,87680.00
2018-07-16T09:52:07.803Z,84576.00
2018-07-16T09:53:07.822Z,86176.00
2018-07-16T09:54:07.822Z,88544.00
2018-07-16T09:55:07.831Z,90176.00
2018-07-16T09:56:07.867Z,90368.00
2018-07-16T09:57:07.857Z,89312.00
2018-07-16T09:58:07.863Z,89792.00
2018-07-16T09:59:07.892Z,92160.00
2018-07-16T10:00:07.889Z,92512.00
2018-07-16T10:01:07.900Z,92192.00
2018-07-16T10:02:07.908Z,91840.00
2018-07-16T10:03:07.919Z,91584.00
2018-07-16T10:04:09.554Z,93312.00
2018-07-16T10:05:07.944Z,94400.00
2018-07-16T10:06:07.972Z,95680.00
2018-07-16T10:07:07.965Z,94272.00
2018-07-16T10:08:08.011Z,91840.00
2018-07-16T10:09:07.988Z,92320.00
2018-07-16T10:10:07.999Z,89440.00
2018-07-16T10:11:08.015Z,84192.00
2018-07-16T10:12:08.060Z,86592.00
2018-07-16T10:13:08.036Z,92608.00
2018-07-16T10:14:08.050Z,92320.00
2018-07-16T10:15:08.062Z,91360.00
2018-07-16T10:16:08.070Z,90208.00
2018-07-16T10:17:08.085Z,90880.00
2018-07-16T10:18:08.097Z,88448.00
2018-07-16T10:19:08.109Z,88128.00
2018-07-16T10:20:08.187Z,85696.00
2018-07-16T10:21:08.155Z,84384.00
2018-07-16T10:22:08.143Z,84672.00
2018-07-16T10:23:08.149Z,86240.00
2018-07-16T10:24:08.163Z,86944.00
2018-07-16T10:25:08.172Z,90016.00
2018-07-16T10:26:08.184Z,90816.00
2018-07-16T10:27:08.223Z,91296.00
2018-07-16T10:28:08.209Z,90080.00
2018-07-16T10:29:08.226Z,92672.00
2018-07-16T10:30:08.233Z,93728.00
2018-07-16T10:31:08.251Z,92928.00
2018-07-16T10:32:08.255Z,92384.00
2018-07-16T10:33:08.282Z,88800.00
2018-07-16T10:34:08.278Z,91968.00
2018-07-16T10:35:08.296Z,94336.00
2018-07-16T10:36:08.299Z,95200.00
2018-07-16T10:37:08.335Z,95456.00
2018-07-16T10:38:08.322Z,94912.00
2018-07-16T10:39:08.338Z,94208.00
2018-07-16T10:40:08.378Z,92992.00
2018-07-16T10:41:08.364Z,93376.00
2018-07-16T10:42:08.372Z,94272.00
2018-07-16T10:43:08.380Z,94784.00
2018-07-16T10:44:08.408Z,94912.00
2018-07-16T10:45:08.416Z,92928.00
2018-07-16T10:46:08.416Z,91968.00
2018-07-16T10:47:08.458Z,92992.00
2018-07-16T10:48:08.448Z,95680.00
2018-07-16T10:49:08.454Z,97728.00
2018-07-16T10:50:08.474Z,97824.00
2018-07-16T10:51:08.507Z,95904.00
2018-07-16T10:52:08.496Z,94048.00
2018-07-16T10:53:08.507Z,94208.00
2018-07-16T10:54:08.519Z,94272.00
2018-07-16T10:55:08.570Z,93792.00
2018-07-16T10:56:08.541Z,92384.00
2018-07-16T10:57:08.570Z,89888.00
2018-07-16T10:58:08.570Z,89856.00
2018-07-16T10:59:08.580Z,93312.00
2018-07-16T11:00:08.597Z,95904.00
2018-07-16T11:01:08.606Z,96320.00
2018-07-16T11:02:08.628Z,95712.00
2018-07-16T11:03:08.782Z,96032.00
2018-07-16T11:04:08.646Z,99104.00
2018-07-16T11:05:08.663Z,98208.00
2018-07-16T11:06:08.671Z,96736.00
2018-07-16T11:07:08.684Z,96224.00
2018-07-16T11:08:08.703Z,97600.00
2018-07-16T11:09:08.714Z,99104.00
2018-07-16T11:10:08.724Z,96896.00
2018-07-16T11:11:08.738Z,94208.00
2018-07-16T11:12:08.750Z,94208.00
2018-07-16T11:13:08.766Z,94816.00
2018-07-16T11:14:08.773Z,93248.00
2018-07-16T11:15:08.910Z,93984.00
2018-07-16T11:16:08.812Z,93248.00
2018-07-16T11:17:08.819Z,91712.00
2018-07-16T11:18:08.827Z,90848.00
2018-07-16T11:19:08.847Z,91104.00
2018-07-16T11:20:08.858Z,89696.00
2018-07-16T11:21:08.873Z,86304.00
2018-07-16T11:22:08.887Z,86592.00
2018-07-16T11:23:08.919Z,89664.00
2018-07-16T11:24:08.910Z,89792.00
2018-07-16T11:25:08.928Z,89728.00
2018-07-16T11:26:08.935Z,88544.00
2018-07-16T11:27:08.952Z,89312.00
2018-07-16T11:28:08.965Z,90208.00
2018-07-16T11:29:08.988Z,89568.00
2018-07-16T11:30:08.991Z,90560.00
2018-07-16T11:31:09.009Z,90176.00
2018-07-16T11:32:09.023Z,91232.00
2018-07-16T11:33:09.038Z,90304.00
2018-07-16T11:34:09.052Z,90176.00
2018-07-16T11:35:09.077Z,91424.00
2018-07-16T11:36:09.108Z,91456.00
2018-07-16T11:37:09.090Z,92256.00
2018-07-16T11:38:09.103Z,92544.00
2018-07-16T11:39:09.118Z,91040.00
2018-07-16T11:40:09.132Z,93024.00
2018-07-16T11:41:09.142Z,95072.00
2018-07-16T11:42:09.157Z,97984.00
2018-07-16T11:43:09.195Z,98400.00
2018-07-16T11:44:09.183Z,99712.00
2018-07-16T11:45:09.200Z,99680.00
2018-07-16T11:46:09.275Z,99360.00
2018-07-16T11:47:09.256Z,100640.00
2018-07-16T11:48:09.274Z,104256.00
2018-07-16T11:49:09.260Z,106048.00
2018-07-16T11:50:09.268Z,106944.00
2018-07-16T11:51:09.307Z,104768.00
2018-07-16T11:52:09.348Z,106848.00
2018-07-16T11:53:09.328Z,105760.00
2018-07-16T11:54:09.319Z,106688.00
2018-07-16T11:55:09.358Z,108224.00
2018-07-16T11:56:09.387Z,106400.00
2018-07-16T11:57:09.354Z,110016.00
2018-07-16T11:58:09.373Z,110176.00
2018-07-16T11:59:09.397Z,110144.00
2018-07-16T12:00:09.408Z,110624.00
2018-07-16T12:01:09.415Z,110496.00
2018-07-16T12:02:09.506Z,111904.00
2018-07-16T12:03:09.445Z,111392.00
2018-07-16T12:04:09.513Z,110848.00
2018-07-16T12:05:10.160Z,112128.00
2018-07-16T12:06:09.468Z,110080.00
2018-07-16T12:07:09.496Z,109216.00
2018-07-16T12:08:09.497Z,107296.00
2018-07-16T12:09:09.509Z,109632.00
2018-07-16T12:10:09.553Z,108256.00
2018-07-16T12:11:09.536Z,108064.00
2018-07-16T12:12:09.573Z,107168.00